sensor_id;sensor_type;location;lat;lon;timestamp;P1;durP1;ratioP1;P2;durP2;ratioP2
10902;SDS011;5504;47.312;11.060;2023-01-26T00:00:57;34.63;;;21.50;;
10902;SDS011;5504;47.312;11.060;2023-01-26T00:03:24;35.93;;;21.33;;
10902;SDS011;5504;47.312;11.060;2023-01-26T00:05:49;35.03;;;21.90;;
10902;SDS011;5504;47.312;11.060;2023-01-26T00:08:15;34.10;;;21.17;;
10902;SDS011;5504;47.312;11.060;2023-01-26T00:10:41;34.43;;;21.83;;
10902;SDS011;5504;47.312;11.060;2023-01-26T00:13:14;35.80;;;20.90;;
10902;SDS011;5504;47.312;11.060;2023-01-26T00:15:41;34.03;;;21.83;;
10902;SDS011;5504;47.312;11.060;2023-01-26T00:18:07;34.00;;;20.90;;
10902;SDS011;5504;47.312;11.060;2023-01-26T00:20:33;33.37;;;20.73;;
10902;SDS011;5504;47.312;11.060;2023-01-26T00:22:59;31.77;;;21.30;;
10902;SDS011;5504;47.312;11.060;2023-01-26T00:25:25;35.57;;;22.13;;
10902;SDS011;5504;47.312;11.060;2023-01-26T00:27:50;33.57;;;21.93;;
10902;SDS011;5504;47.312;11.060;2023-01-26T00:30:16;35.73;;;22.23;;
10902;SDS011;5504;47.312;11.060;2023-01-26T00:32:42;34.17;;;21.77;;
10902;SDS011;5504;47.312;11.060;2023-01-26T00:35:07;37.03;;;22.67;;
10902;SDS011;5504;47.312;11.060;2023-01-26T00:37:33;37.20;;;22.73;;
10902;SDS011;5504;47.312;11.060;2023-01-26T00:39:59;38.40;;;23.73;;
10902;SDS011;5504;47.312;11.060;2023-01-26T00:42:25;35.30;;;22.57;;
10902;SDS011;5504;47.312;11.060;2023-01-26T00:44:50;36.40;;;22.27;;
10902;SDS011;5504;47.312;11.060;2023-01-26T00:47:16;36.23;;;21.77;;
10902;SDS011;5504;47.312;11.060;2023-01-26T00:49:43;35.23;;;22.13;;
10902;SDS011;5504;47.312;11.060;2023-01-26T00:52:11;37.07;;;22.47;;
10902;SDS011;5504;47.312;11.060;2023-01-26T00:54:37;35.67;;;22.93;;
10902;SDS011;5504;47.312;11.060;2023-01-26T00:57:02;34.73;;;22.17;;
10902;SDS011;5504;47.312;11.060;2023-01-26T00:59:28;32.60;;;21.57;;
10902;SDS011;5504;47.312;11.060;2023-01-26T01:01:56;35.17;;;21.80;;
10902;SDS011;5504;47.312;11.060;2023-01-26T01:04:23;34.10;;;20.80;;
10902;SDS011;5504;47.312;11.060;2023-01-26T01:06:49;33.47;;;21.30;;
10902;SDS011;5504;47.312;11.060;2023-01-26T01:09:15;35.93;;;21.47;;
10902;SDS011;5504;47.312;11.060;2023-01-26T01:11:41;33.63;;;21.57;;
10902;SDS011;5504;47.312;11.060;2023-01-26T01:14:07;36.70;;;22.07;;
10902;SDS011;5504;47.312;11.060;2023-01-26T01:16:34;31.67;;;20.97;;
10902;SDS011;5504;47.312;11.060;2023-01-26T01:18:59;36.10;;;21.70;;
10902;SDS011;5504;47.312;11.060;2023-01-26T01:21:25;32.63;;;21.27;;
10902;SDS011;5504;47.312;11.060;2023-01-26T01:23:51;33.37;;;21.33;;
10902;SDS011;5504;47.312;11.060;2023-01-26T01:26:17;35.63;;;21.90;;
10902;SDS011;5504;47.312;11.060;2023-01-26T01:28:43;33.80;;;20.90;;
10902;SDS011;5504;47.312;11.060;2023-01-26T01:31:11;34.60;;;21.47;;
10902;SDS011;5504;47.312;11.060;2023-01-26T01:33:39;32.17;;;20.77;;
10902;SDS011;5504;47.312;11.060;2023-01-26T01:36:06;30.13;;;20.37;;
10902;SDS011;5504;47.312;11.060;2023-01-26T01:38:33;35.87;;;21.43;;
10902;SDS011;5504;47.312;11.060;2023-01-26T01:40:59;32.93;;;20.10;;
10902;SDS011;5504;47.312;11.060;2023-01-26T01:43:25;33.20;;;21.10;;
10902;SDS011;5504;47.312;11.060;2023-01-26T01:45:52;34.73;;;21.20;;
10902;SDS011;5504;47.312;11.060;2023-01-26T01:48:34;38.10;;;22.07;;
10902;SDS011;5504;47.312;11.060;2023-01-26T01:51:52;34.83;;;22.23;;
10902;SDS011;5504;47.312;11.060;2023-01-26T01:54:02;37.97;;;22.87;;
10902;SDS011;5504;47.312;11.060;2023-01-26T01:56:32;40.47;;;23.70;;
10902;SDS011;5504;47.312;11.060;2023-01-26T01:59:00;41.43;;;23.90;;
10902;SDS011;5504;47.312;11.060;2023-01-26T02:01:28;41.77;;;23.50;;
10902;SDS011;5504;47.312;11.060;2023-01-26T02:03:55;41.03;;;23.90;;
10902;SDS011;5504;47.312;11.060;2023-01-26T02:06:27;40.27;;;24.53;;
10902;SDS011;5504;47.312;11.060;2023-01-26T02:08:57;40.27;;;22.83;;
10902;SDS011;5504;47.312;11.060;2023-01-26T02:11:27;38.80;;;23.37;;
10902;SDS011;5504;47.312;11.060;2023-01-26T02:14:06;37.67;;;22.33;;
10902;SDS011;5504;47.312;11.060;2023-01-26T02:16:34;37.03;;;22.23;;
10902;SDS011;5504;47.312;11.060;2023-01-26T02:19:00;41.33;;;23.03;;
10902;SDS011;5504;47.312;11.060;2023-01-26T02:21:26;35.67;;;21.83;;
10902;SDS011;5504;47.312;11.060;2023-01-26T02:26:30;35.03;;;20.93;;
10902;SDS011;5504;47.312;11.060;2023-01-26T02:28:58;36.83;;;21.47;;
10902;SDS011;5504;47.312;11.060;2023-01-26T02:31:24;36.87;;;22.37;;
10902;SDS011;5504;47.312;11.060;2023-01-26T02:33:51;36.53;;;21.70;;
10902;SDS011;5504;47.312;11.060;2023-01-26T02:38:43;35.33;;;20.47;;
10902;SDS011;5504;47.312;11.060;2023-01-26T02:41:15;31.67;;;19.30;;
10902;SDS011;5504;47.312;11.060;2023-01-26T02:44:01;32.60;;;19.93;;
10902;SDS011;5504;47.312;11.060;2023-01-26T02:46:29;34.20;;;20.67;;
10902;SDS011;5504;47.312;11.060;2023-01-26T02:48:55;37.03;;;21.30;;
10902;SDS011;5504;47.312;11.060;2023-01-26T02:51:39;32.60;;;20.10;;
10902;SDS011;5504;47.312;11.060;2023-01-26T02:54:04;33.93;;;20.40;;
10902;SDS011;5504;47.312;11.060;2023-01-26T02:56:30;32.63;;;21.20;;
10902;SDS011;5504;47.312;11.060;2023-01-26T02:58:56;31.47;;;20.57;;
10902;SDS011;5504;47.312;11.060;2023-01-26T03:01:21;32.70;;;21.10;;
10902;SDS011;5504;47.312;11.060;2023-01-26T03:03:47;36.10;;;21.33;;
10902;SDS011;5504;47.312;11.060;2023-01-26T03:06:13;35.70;;;22.13;;
10902;SDS011;5504;47.312;11.060;2023-01-26T03:08:39;35.00;;;20.87;;
10902;SDS011;5504;47.312;11.060;2023-01-26T03:11:06;35.13;;;20.80;;
10902;SDS011;5504;47.312;11.060;2023-01-26T03:13:33;37.33;;;21.90;;
10902;SDS011;5504;47.312;11.060;2023-01-26T03:15:59;35.73;;;21.67;;
10902;SDS011;5504;47.312;11.060;2023-01-26T03:18:31;34.23;;;21.53;;
10902;SDS011;5504;47.312;11.060;2023-01-26T03:21:17;34.83;;;20.57;;
10902;SDS011;5504;47.312;11.060;2023-01-26T03:24:01;34.40;;;20.87;;
10902;SDS011;5504;47.312;11.060;2023-01-26T03:26:46;35.27;;;21.90;;
10902;SDS011;5504;47.312;11.060;2023-01-26T03:29:30;40.13;;;23.47;;
10902;SDS011;5504;47.312;11.060;2023-01-26T03:31:56;40.00;;;23.37;;
10902;SDS011;5504;47.312;11.060;2023-01-26T03:34:25;38.67;;;23.03;;
10902;SDS011;5504;47.312;11.060;2023-01-26T03:36:53;36.90;;;22.93;;
10902;SDS011;5504;47.312;11.060;2023-01-26T03:39:19;41.63;;;23.53;;
10902;SDS011;5504;47.312;11.060;2023-01-26T03:42:03;44.50;;;22.27;;
10902;SDS011;5504;47.312;11.060;2023-01-26T03:44:48;41.10;;;23.10;;
10902;SDS011;5504;47.312;11.060;2023-01-26T03:47:32;36.27;;;22.70;;
10902;SDS011;5504;47.312;11.060;2023-01-26T03:50:17;38.63;;;22.70;;
10902;SDS011;5504;47.312;11.060;2023-01-26T03:53:01;38.77;;;21.60;;
10902;SDS011;5504;47.312;11.060;2023-01-26T03:55:45;39.90;;;23.20;;
10902;SDS011;5504;47.312;11.060;2023-01-26T03:58:29;38.93;;;22.77;;
10902;SDS011;5504;47.312;11.060;2023-01-26T04:00:55;39.77;;;22.93;;
10902;SDS011;5504;47.312;11.060;2023-01-26T04:03:21;38.73;;;22.53;;
10902;SDS011;5504;47.312;11.060;2023-01-26T04:06:06;37.73;;;22.43;;
10902;SDS011;5504;47.312;11.060;2023-01-26T04:08:50;35.70;;;21.10;;
10902;SDS011;5504;47.312;11.060;2023-01-26T04:11:15;40.80;;;22.70;;
10902;SDS011;5504;47.312;11.060;2023-01-26T04:13:41;37.67;;;22.40;;
10902;SDS011;5504;47.312;11.060;2023-01-26T04:16:25;36.83;;;21.93;;
10902;SDS011;5504;47.312;11.060;2023-01-26T04:19:09;34.13;;;20.77;;
10902;SDS011;5504;47.312;11.060;2023-01-26T04:21:53;38.50;;;22.27;;
10902;SDS011;5504;47.312;11.060;2023-01-26T04:24:19;35.43;;;21.13;;
10902;SDS011;5504;47.312;11.060;2023-01-26T04:26:46;35.80;;;21.77;;
10902;SDS011;5504;47.312;11.060;2023-01-26T04:29:12;34.57;;;21.27;;
10902;SDS011;5504;47.312;11.060;2023-01-26T04:31:39;38.20;;;23.00;;
10902;SDS011;5504;47.312;11.060;2023-01-26T04:34:08;35.60;;;21.23;;
10902;SDS011;5504;47.312;11.060;2023-01-26T04:36:36;37.20;;;21.90;;
10902;SDS011;5504;47.312;11.060;2023-01-26T04:39:01;34.03;;;21.47;;
10902;SDS011;5504;47.312;11.060;2023-01-26T04:41:28;35.03;;;21.20;;
10902;SDS011;5504;47.312;11.060;2023-01-26T04:43:54;34.43;;;21.17;;
10902;SDS011;5504;47.312;11.060;2023-01-26T04:46:20;35.07;;;21.30;;
10902;SDS011;5504;47.312;11.060;2023-01-26T04:48:46;29.47;;;19.70;;
10902;SDS011;5504;47.312;11.060;2023-01-26T04:51:12;32.23;;;20.40;;
10902;SDS011;5504;47.312;11.060;2023-01-26T04:53:40;36.60;;;22.37;;
10902;SDS011;5504;47.312;11.060;2023-01-26T04:56:06;36.33;;;23.30;;
10902;SDS011;5504;47.312;11.060;2023-01-26T04:58:33;36.47;;;22.60;;
10902;SDS011;5504;47.312;11.060;2023-01-26T05:00:59;38.10;;;22.97;;
10902;SDS011;5504;47.312;11.060;2023-01-26T05:03:25;35.83;;;22.23;;
10902;SDS011;5504;47.312;11.060;2023-01-26T05:05:52;38.83;;;22.83;;
10902;SDS011;5504;47.312;11.060;2023-01-26T05:08:19;34.80;;;21.43;;
10902;SDS011;5504;47.312;11.060;2023-01-26T05:10:46;34.20;;;21.40;;
10902;SDS011;5504;47.312;11.060;2023-01-26T05:13:12;35.67;;;21.13;;
10902;SDS011;5504;47.312;11.060;2023-01-26T05:15:38;33.00;;;20.73;;
10902;SDS011;5504;47.312;11.060;2023-01-26T05:18:04;37.07;;;21.90;;
10902;SDS011;5504;47.312;11.060;2023-01-26T05:20:31;37.63;;;21.80;;
10902;SDS011;5504;47.312;11.060;2023-01-26T05:22:57;37.93;;;22.70;;
10902;SDS011;5504;47.312;11.060;2023-01-26T05:25:23;39.57;;;25.33;;
10902;SDS011;5504;47.312;11.060;2023-01-26T05:27:48;33.90;;;21.23;;
10902;SDS011;5504;47.312;11.060;2023-01-26T05:30:14;33.93;;;21.37;;
10902;SDS011;5504;47.312;11.060;2023-01-26T05:32:40;35.03;;;22.70;;
10902;SDS011;5504;47.312;11.060;2023-01-26T05:35:06;35.40;;;21.43;;
10902;SDS011;5504;47.312;11.060;2023-01-26T05:37:32;38.27;;;23.57;;
10902;SDS011;5504;47.312;11.060;2023-01-26T05:39:58;36.13;;;22.80;;
10902;SDS011;5504;47.312;11.060;2023-01-26T05:42:24;35.97;;;21.87;;
10902;SDS011;5504;47.312;11.060;2023-01-26T05:44:51;39.73;;;24.30;;
10902;SDS011;5504;47.312;11.060;2023-01-26T05:47:17;35.40;;;21.80;;
10902;SDS011;5504;47.312;11.060;2023-01-26T05:49:43;34.77;;;21.60;;
10902;SDS011;5504;47.312;11.060;2023-01-26T05:52:16;35.33;;;20.40;;
10902;SDS011;5504;47.312;11.060;2023-01-26T05:54:43;36.73;;;20.87;;
10902;SDS011;5504;47.312;11.060;2023-01-26T05:57:09;37.17;;;20.80;;
10902;SDS011;5504;47.312;11.060;2023-01-26T05:59:36;36.53;;;21.40;;
10902;SDS011;5504;47.312;11.060;2023-01-26T06:02:02;35.10;;;20.73;;
10902;SDS011;5504;47.312;11.060;2023-01-26T06:04:28;33.70;;;20.00;;
10902;SDS011;5504;47.312;11.060;2023-01-26T06:06:54;36.73;;;21.67;;
10902;SDS011;5504;47.312;11.060;2023-01-26T06:09:21;35.80;;;20.80;;
10902;SDS011;5504;47.312;11.060;2023-01-26T06:11:47;35.17;;;20.87;;
10902;SDS011;5504;47.312;11.060;2023-01-26T06:14:13;31.73;;;19.90;;
10902;SDS011;5504;47.312;11.060;2023-01-26T06:16:39;34.23;;;19.77;;
10902;SDS011;5504;47.312;11.060;2023-01-26T06:19:05;32.70;;;19.30;;
10902;SDS011;5504;47.312;11.060;2023-01-26T06:21:32;33.67;;;20.00;;
10902;SDS011;5504;47.312;11.060;2023-01-26T06:23:58;33.17;;;19.33;;
10902;SDS011;5504;47.312;11.060;2023-01-26T06:26:24;35.87;;;19.90;;
10902;SDS011;5504;47.312;11.060;2023-01-26T06:28:50;34.00;;;19.60;;
10902;SDS011;5504;47.312;11.060;2023-01-26T06:31:17;34.83;;;19.80;;
10902;SDS011;5504;47.312;11.060;2023-01-26T06:33:43;34.77;;;19.80;;
10902;SDS011;5504;47.312;11.060;2023-01-26T06:36:10;33.80;;;19.27;;
10902;SDS011;5504;47.312;11.060;2023-01-26T06:38:43;33.43;;;20.03;;
10902;SDS011;5504;47.312;11.060;2023-01-26T06:41:10;34.93;;;19.63;;
10902;SDS011;5504;47.312;11.060;2023-01-26T06:43:36;35.20;;;20.63;;
10902;SDS011;5504;47.312;11.060;2023-01-26T06:46:03;36.60;;;20.87;;
10902;SDS011;5504;47.312;11.060;2023-01-26T06:48:30;33.33;;;20.00;;
10902;SDS011;5504;47.312;11.060;2023-01-26T06:53:56;31.63;;;19.30;;
10902;SDS011;5504;47.312;11.060;2023-01-26T06:56:23;36.40;;;20.33;;
10902;SDS011;5504;47.312;11.060;2023-01-26T06:58:49;34.13;;;20.03;;
10902;SDS011;5504;47.312;11.060;2023-01-26T07:03:42;30.27;;;18.47;;
10902;SDS011;5504;47.312;11.060;2023-01-26T07:06:08;32.40;;;17.73;;
10902;SDS011;5504;47.312;11.060;2023-01-26T07:08:36;29.97;;;18.03;;
10902;SDS011;5504;47.312;11.060;2023-01-26T07:11:02;30.10;;;18.23;;
10902;SDS011;5504;47.312;11.060;2023-01-26T07:13:28;33.23;;;19.03;;
10902;SDS011;5504;47.312;11.060;2023-01-26T07:16:00;33.97;;;19.13;;
10902;SDS011;5504;47.312;11.060;2023-01-26T07:18:26;34.57;;;21.77;;
10902;SDS011;5504;47.312;11.060;2023-01-26T07:20:52;40.03;;;24.03;;
10902;SDS011;5504;47.312;11.060;2023-01-26T07:23:18;40.20;;;23.03;;
10902;SDS011;5504;47.312;11.060;2023-01-26T07:25:43;35.07;;;21.33;;
10902;SDS011;5504;47.312;11.060;2023-01-26T07:28:09;33.60;;;20.07;;
10902;SDS011;5504;47.312;11.060;2023-01-26T07:30:35;34.13;;;20.90;;
10902;SDS011;5504;47.312;11.060;2023-01-26T07:33:01;34.87;;;19.57;;
10902;SDS011;5504;47.312;11.060;2023-01-26T07:35:26;32.33;;;18.43;;
10902;SDS011;5504;47.312;11.060;2023-01-26T07:37:53;30.63;;;18.60;;
10902;SDS011;5504;47.312;11.060;2023-01-26T07:40:21;33.10;;;19.13;;
10902;SDS011;5504;47.312;11.060;2023-01-26T07:42:47;32.93;;;19.53;;
10902;SDS011;5504;47.312;11.060;2023-01-26T07:45:13;33.53;;;19.23;;
10902;SDS011;5504;47.312;11.060;2023-01-26T07:47:41;32.77;;;18.80;;
10902;SDS011;5504;47.312;11.060;2023-01-26T07:50:08;34.27;;;18.07;;
10902;SDS011;5504;47.312;11.060;2023-01-26T07:52:35;32.93;;;19.37;;
10902;SDS011;5504;47.312;11.060;2023-01-26T07:55:02;35.60;;;20.33;;
10902;SDS011;5504;47.312;11.060;2023-01-26T07:57:28;33.80;;;20.17;;
10902;SDS011;5504;47.312;11.060;2023-01-26T07:59:54;37.77;;;21.17;;
10902;SDS011;5504;47.312;11.060;2023-01-26T08:02:20;33.93;;;20.00;;
10902;SDS011;5504;47.312;11.060;2023-01-26T08:04:46;33.73;;;19.87;;
10902;SDS011;5504;47.312;11.060;2023-01-26T08:07:11;33.37;;;19.23;;
10902;SDS011;5504;47.312;11.060;2023-01-26T08:09:37;32.67;;;19.10;;
10902;SDS011;5504;47.312;11.060;2023-01-26T08:12:03;36.00;;;19.70;;
10902;SDS011;5504;47.312;11.060;2023-01-26T08:14:29;34.50;;;19.40;;
10902;SDS011;5504;47.312;11.060;2023-01-26T08:16:54;35.23;;;20.50;;
10902;SDS011;5504;47.312;11.060;2023-01-26T08:19:20;34.97;;;20.57;;
10902;SDS011;5504;47.312;11.060;2023-01-26T08:21:46;34.20;;;19.70;;
10902;SDS011;5504;47.312;11.060;2023-01-26T08:24:11;34.90;;;20.40;;
10902;SDS011;5504;47.312;11.060;2023-01-26T08:26:37;35.70;;;20.80;;
10902;SDS011;5504;47.312;11.060;2023-01-26T08:29:03;40.10;;;21.40;;
10902;SDS011;5504;47.312;11.060;2023-01-26T08:31:29;33.47;;;20.07;;
10902;SDS011;5504;47.312;11.060;2023-01-26T08:33:55;35.23;;;20.00;;
10902;SDS011;5504;47.312;11.060;2023-01-26T08:36:21;38.27;;;21.30;;
10902;SDS011;5504;47.312;11.060;2023-01-26T08:38:47;35.40;;;19.40;;
10902;SDS011;5504;47.312;11.060;2023-01-26T08:41:12;35.13;;;20.07;;
10902;SDS011;5504;47.312;11.060;2023-01-26T08:43:38;33.53;;;19.03;;
10902;SDS011;5504;47.312;11.060;2023-01-26T08:46:04;37.07;;;21.40;;
10902;SDS011;5504;47.312;11.060;2023-01-26T08:48:30;33.17;;;19.73;;
10902;SDS011;5504;47.312;11.060;2023-01-26T08:50:57;36.43;;;20.43;;
10902;SDS011;5504;47.312;11.060;2023-01-26T08:53:24;37.83;;;20.40;;
10902;SDS011;5504;47.312;11.060;2023-01-26T08:55:51;34.53;;;19.57;;
10902;SDS011;5504;47.312;11.060;2023-01-26T08:58:16;35.83;;;19.80;;
10902;SDS011;5504;47.312;11.060;2023-01-26T09:00:43;32.63;;;18.70;;
10902;SDS011;5504;47.312;11.060;2023-01-26T09:03:08;34.63;;;19.03;;
10902;SDS011;5504;47.312;11.060;2023-01-26T09:05:35;35.17;;;19.23;;
10902;SDS011;5504;47.312;11.060;2023-01-26T09:08:02;35.17;;;19.77;;
10902;SDS011;5504;47.312;11.060;2023-01-26T09:10:29;34.67;;;19.17;;
10902;SDS011;5504;47.312;11.060;2023-01-26T09:12:56;37.33;;;19.77;;
10902;SDS011;5504;47.312;11.060;2023-01-26T09:15:22;35.37;;;19.23;;
10902;SDS011;5504;47.312;11.060;2023-01-26T09:17:48;35.53;;;19.13;;
10902;SDS011;5504;47.312;11.060;2023-01-26T09:20:15;36.33;;;19.70;;
10902;SDS011;5504;47.312;11.060;2023-01-26T09:22:41;33.23;;;18.60;;
10902;SDS011;5504;47.312;11.060;2023-01-26T09:25:07;33.80;;;19.17;;
10902;SDS011;5504;47.312;11.060;2023-01-26T09:27:33;33.50;;;19.40;;
10902;SDS011;5504;47.312;11.060;2023-01-26T09:29:59;35.17;;;19.70;;
10902;SDS011;5504;47.312;11.060;2023-01-26T09:32:25;32.30;;;19.57;;
10902;SDS011;5504;47.312;11.060;2023-01-26T09:34:51;29.63;;;17.90;;
10902;SDS011;5504;47.312;11.060;2023-01-26T09:37:16;33.50;;;19.27;;
10902;SDS011;5504;47.312;11.060;2023-01-26T09:39:42;31.87;;;18.23;;
10902;SDS011;5504;47.312;11.060;2023-01-26T09:50:40;28.13;;;17.37;;
10902;SDS011;5504;47.312;11.060;2023-01-26T09:53:44;32.87;;;18.47;;
10902;SDS011;5504;47.312;11.060;2023-01-26T09:56:18;30.13;;;17.23;;
10902;SDS011;5504;47.312;11.060;2023-01-26T09:58:48;32.37;;;17.97;;
10902;SDS011;5504;47.312;11.060;2023-01-26T10:01:20;33.93;;;18.70;;
10902;SDS011;5504;47.312;11.060;2023-01-26T10:04:33;32.67;;;18.23;;
10902;SDS011;5504;47.312;11.060;2023-01-26T10:07:09;36.87;;;18.30;;
10902;SDS011;5504;47.312;11.060;2023-01-26T10:09:36;32.50;;;18.60;;
10902;SDS011;5504;47.312;11.060;2023-01-26T10:12:06;29.13;;;16.77;;
10902;SDS011;5504;47.312;11.060;2023-01-26T10:14:40;30.23;;;17.13;;
10902;SDS011;5504;47.312;11.060;2023-01-26T10:17:23;31.87;;;17.40;;
10902;SDS011;5504;47.312;11.060;2023-01-26T10:19:59;31.33;;;18.20;;
10902;SDS011;5504;47.312;11.060;2023-01-26T10:22:45;32.40;;;18.30;;
10902;SDS011;5504;47.312;11.060;2023-01-26T10:25:18;34.03;;;19.77;;
10902;SDS011;5504;47.312;11.060;2023-01-26T10:27:46;38.13;;;21.80;;
10902;SDS011;5504;47.312;11.060;2023-01-26T10:30:13;30.40;;;18.33;;
10902;SDS011;5504;47.312;11.060;2023-01-26T10:32:41;30.53;;;17.23;;
10902;SDS011;5504;47.312;11.060;2023-01-26T10:35:14;30.20;;;17.93;;
10902;SDS011;5504;47.312;11.060;2023-01-26T10:37:42;35.53;;;19.07;;
10902;SDS011;5504;47.312;11.060;2023-01-26T10:40:08;33.23;;;18.40;;
10902;SDS011;5504;47.312;11.060;2023-01-26T10:42:35;32.47;;;17.63;;
10902;SDS011;5504;47.312;11.060;2023-01-26T10:45:06;31.93;;;17.77;;
10902;SDS011;5504;47.312;11.060;2023-01-26T10:48:35;28.27;;;16.83;;
10902;SDS011;5504;47.312;11.060;2023-01-26T10:50:48;29.33;;;20.20;;
10902;SDS011;5504;47.312;11.060;2023-01-26T10:53:21;37.90;;;26.60;;
10902;SDS011;5504;47.312;11.060;2023-01-26T10:55:58;29.17;;;16.53;;
10902;SDS011;5504;47.312;11.060;2023-01-26T11:01:13;29.90;;;17.37;;
10902;SDS011;5504;47.312;11.060;2023-01-26T11:03:42;30.67;;;17.47;;
10902;SDS011;5504;47.312;11.060;2023-01-26T11:06:36;31.90;;;19.10;;
10902;SDS011;5504;47.312;11.060;2023-01-26T11:09:24;32.53;;;18.30;;
10902;SDS011;5504;47.312;11.060;2023-01-26T11:12:01;31.40;;;18.30;;
10902;SDS011;5504;47.312;11.060;2023-01-26T11:14:30;29.57;;;18.27;;
10902;SDS011;5504;47.312;11.060;2023-01-26T11:37:01;30.23;;;17.10;;
10902;SDS011;5504;47.312;11.060;2023-01-26T11:40:00;33.23;;;17.87;;
10902;SDS011;5504;47.312;11.060;2023-01-26T11:55:01;31.13;;;17.93;;
10902;SDS011;5504;47.312;11.060;2023-01-26T12:00:40;32.47;;;18.33;;
10902;SDS011;5504;47.312;11.060;2023-01-26T12:03:14;30.90;;;18.00;;
10902;SDS011;5504;47.312;11.060;2023-01-26T12:05:53;31.83;;;19.23;;
10902;SDS011;5504;47.312;11.060;2023-01-26T12:08:39;32.13;;;18.57;;
10902;SDS011;5504;47.312;11.060;2023-01-26T12:11:07;32.47;;;19.07;;
10902;SDS011;5504;47.312;11.060;2023-01-26T12:22:23;34.53;;;19.87;;
10902;SDS011;5504;47.312;11.060;2023-01-26T12:24:56;31.83;;;18.23;;
10902;SDS011;5504;47.312;11.060;2023-01-26T12:27:44;32.37;;;18.53;;
10902;SDS011;5504;47.312;11.060;2023-01-26T12:30:24;30.17;;;17.67;;
10902;SDS011;5504;47.312;11.060;2023-01-26T12:32:57;28.80;;;17.83;;
10902;SDS011;5504;47.312;11.060;2023-01-26T12:38:29;32.47;;;18.27;;
10902;SDS011;5504;47.312;11.060;2023-01-26T12:44:29;29.30;;;17.87;;
10902;SDS011;5504;47.312;11.060;2023-01-26T12:49:55;33.43;;;19.73;;
10902;SDS011;5504;47.312;11.060;2023-01-26T12:55:41;30.27;;;17.87;;
10902;SDS011;5504;47.312;11.060;2023-01-26T12:58:19;30.77;;;18.73;;
10902;SDS011;5504;47.312;11.060;2023-01-26T13:04:11;33.37;;;20.07;;
10902;SDS011;5504;47.312;11.060;2023-01-26T13:06:27;33.63;;;19.17;;
10902;SDS011;5504;47.312;11.060;2023-01-26T13:17:39;28.63;;;17.13;;
10902;SDS011;5504;47.312;11.060;2023-01-26T13:20:19;29.10;;;17.80;;
10902;SDS011;5504;47.312;11.060;2023-01-26T13:28:48;32.03;;;19.07;;
10902;SDS011;5504;47.312;11.060;2023-01-26T13:31:33;34.13;;;19.53;;
10902;SDS011;5504;47.312;11.060;2023-01-26T13:34:04;29.47;;;19.10;;
10902;SDS011;5504;47.312;11.060;2023-01-26T13:36:34;28.90;;;16.43;;
10902;SDS011;5504;47.312;11.060;2023-01-26T13:39:04;30.00;;;17.67;;
10902;SDS011;5504;47.312;11.060;2023-01-26T13:41:53;30.07;;;17.07;;
10902;SDS011;5504;47.312;11.060;2023-01-26T13:44:20;28.60;;;17.70;;
10902;SDS011;5504;47.312;11.060;2023-01-26T13:46:56;28.40;;;17.57;;
10902;SDS011;5504;47.312;11.060;2023-01-26T13:54:42;27.10;;;16.67;;
10902;SDS011;5504;47.312;11.060;2023-01-26T13:57:10;25.40;;;15.77;;
10902;SDS011;5504;47.312;11.060;2023-01-26T13:59:52;30.20;;;16.50;;
10902;SDS011;5504;47.312;11.060;2023-01-26T14:02:21;26.00;;;15.67;;
10902;SDS011;5504;47.312;11.060;2023-01-26T14:04:52;23.73;;;14.57;;
10902;SDS011;5504;47.312;11.060;2023-01-26T14:07:21;24.10;;;14.47;;
10902;SDS011;5504;47.312;11.060;2023-01-26T14:09:54;23.83;;;14.70;;
10902;SDS011;5504;47.312;11.060;2023-01-26T14:12:24;24.13;;;14.33;;
10902;SDS011;5504;47.312;11.060;2023-01-26T14:14:54;24.20;;;15.27;;
10902;SDS011;5504;47.312;11.060;2023-01-26T14:17:30;23.87;;;13.90;;
10902;SDS011;5504;47.312;11.060;2023-01-26T14:19:58;26.57;;;16.00;;
10902;SDS011;5504;47.312;11.060;2023-01-26T14:22:25;25.87;;;14.67;;
10902;SDS011;5504;47.312;11.060;2023-01-26T14:24:52;24.87;;;14.77;;
10902;SDS011;5504;47.312;11.060;2023-01-26T14:30:02;25.33;;;15.43;;
10902;SDS011;5504;47.312;11.060;2023-01-26T14:32:47;30.23;;;16.60;;
10902;SDS011;5504;47.312;11.060;2023-01-26T14:35:20;29.57;;;16.80;;
10902;SDS011;5504;47.312;11.060;2023-01-26T14:37:47;30.77;;;17.23;;
10902;SDS011;5504;47.312;11.060;2023-01-26T14:40:22;31.83;;;17.60;;
10902;SDS011;5504;47.312;11.060;2023-01-26T14:42:49;28.63;;;16.77;;
10902;SDS011;5504;47.312;11.060;2023-01-26T14:45:17;30.97;;;16.87;;
10902;SDS011;5504;47.312;11.060;2023-01-26T14:47:54;30.87;;;16.40;;
10902;SDS011;5504;47.312;11.060;2023-01-26T14:50:25;29.67;;;16.33;;
10902;SDS011;5504;47.312;11.060;2023-01-26T14:52:54;29.90;;;16.67;;
10902;SDS011;5504;47.312;11.060;2023-01-26T14:55:22;31.10;;;17.77;;
10902;SDS011;5504;47.312;11.060;2023-01-26T14:57:53;32.13;;;17.43;;
10902;SDS011;5504;47.312;11.060;2023-01-26T15:00:33;32.33;;;18.27;;
10902;SDS011;5504;47.312;11.060;2023-01-26T15:03:03;33.83;;;18.63;;
10902;SDS011;5504;47.312;11.060;2023-01-26T15:05:37;38.13;;;23.17;;
10902;SDS011;5504;47.312;11.060;2023-01-26T15:08:27;36.73;;;22.03;;
10902;SDS011;5504;47.312;11.060;2023-01-26T15:10:52;36.47;;;19.17;;
10902;SDS011;5504;47.312;11.060;2023-01-26T15:13:22;34.80;;;18.90;;
10902;SDS011;5504;47.312;11.060;2023-01-26T15:16:03;41.57;;;19.67;;
10902;SDS011;5504;47.312;11.060;2023-01-26T15:18:32;32.80;;;19.03;;
10902;SDS011;5504;47.312;11.060;2023-01-26T15:23:30;37.10;;;19.77;;
10902;SDS011;5504;47.312;11.060;2023-01-26T15:28:32;33.27;;;19.03;;
10902;SDS011;5504;47.312;11.060;2023-01-26T15:30:58;39.23;;;20.87;;
10902;SDS011;5504;47.312;11.060;2023-01-26T15:36:27;37.27;;;20.10;;
10902;SDS011;5504;47.312;11.060;2023-01-26T15:39:15;38.73;;;20.97;;
10902;SDS011;5504;47.312;11.060;2023-01-26T15:41:43;38.20;;;19.93;;
10902;SDS011;5504;47.312;11.060;2023-01-26T15:44:15;38.00;;;20.43;;
10902;SDS011;5504;47.312;11.060;2023-01-26T15:46:42;34.57;;;19.03;;
10902;SDS011;5504;47.312;11.060;2023-01-26T15:49:08;38.27;;;20.13;;
10902;SDS011;5504;47.312;11.060;2023-01-26T15:51:35;37.07;;;20.43;;
10902;SDS011;5504;47.312;11.060;2023-01-26T15:54:01;38.40;;;20.80;;
10902;SDS011;5504;47.312;11.060;2023-01-26T15:56:27;37.47;;;19.43;;
10902;SDS011;5504;47.312;11.060;2023-01-26T15:58:53;38.47;;;20.63;;
10902;SDS011;5504;47.312;11.060;2023-01-26T16:01:20;43.20;;;22.50;;
10902;SDS011;5504;47.312;11.060;2023-01-26T16:03:47;39.60;;;20.60;;
10902;SDS011;5504;47.312;11.060;2023-01-26T16:06:16;44.77;;;22.20;;
10902;SDS011;5504;47.312;11.060;2023-01-26T16:08:51;35.27;;;19.20;;
10902;SDS011;5504;47.312;11.060;2023-01-26T16:11:17;41.53;;;21.13;;
10902;SDS011;5504;47.312;11.060;2023-01-26T16:13:44;38.43;;;21.17;;
10902;SDS011;5504;47.312;11.060;2023-01-26T16:16:10;38.90;;;20.23;;
10902;SDS011;5504;47.312;11.060;2023-01-26T16:18:37;32.93;;;18.40;;
10902;SDS011;5504;47.312;11.060;2023-01-26T16:21:12;36.47;;;20.63;;
10902;SDS011;5504;47.312;11.060;2023-01-26T16:23:44;32.87;;;18.27;;
10902;SDS011;5504;47.312;11.060;2023-01-26T16:26:11;35.27;;;19.33;;
10902;SDS011;5504;47.312;11.060;2023-01-26T16:28:38;35.57;;;19.07;;